sensor_id;sensor_type;location;lat;lon;timestamp;P1;durP1;ratioP1;P2;durP2;ratioP2
50651;SDS011;61429;52.086;5.240;2022-08-19T00:01:22;6.3;;;5.8;;
50651;SDS011;61429;52.086;5.240;2022-08-19T00:02:59;6.4;;;5.8;;
50651;SDS011;61429;52.086;5.240;2022-08-19T00:04:36;5.8;;;5.3;;
50651;SDS011;61429;52.086;5.240;2022-08-19T00:07:49;6.0;;;5.5;;
50651;SDS011;61429;52.086;5.240;2022-08-19T00:09:27;6.8;;;6.2;;
50651;SDS011;61429;52.086;5.240;2022-08-19T00:11:03;6.7;;;6.1;;
50651;SDS011;61429;52.086;5.240;2022-08-19T00:12:41;6.8;;;6.2;;
50651;SDS011;61429;52.086;5.240;2022-08-19T00:15:55;7.2;;;6.6;;
50651;SDS011;61429;52.086;5.240;2022-08-19T00:17:31;7.0;;;6.4;;
50651;SDS011;61429;52.086;5.240;2022-08-19T00:19:07;6.3;;;5.7;;
50651;SDS011;61429;52.086;5.240;2022-08-19T00:22:20;6.0;;;5.5;;
50651;SDS011;61429;52.086;5.240;2022-08-19T00:23:58;6.9;;;6.3;;
50651;SDS011;61429;52.086;5.240;2022-08-19T00:25:36;6.3;;;5.5;;
50651;SDS011;61429;52.086;5.240;2022-08-19T00:27:12;6.4;;;5.8;;
50651;SDS011;61429;52.086;5.240;2022-08-19T00:30:27;6.0;;;5.5;;
50651;SDS011;61429;52.086;5.240;2022-08-19T00:32:04;6.3;;;5.7;;
50651;SDS011;61429;52.086;5.240;2022-08-19T00:33:41;6.1;;;5.6;;
50651;SDS011;61429;52.086;5.240;2022-08-19T00:36:54;6.4;;;5.8;;
50651;SDS011;61429;52.086;5.240;2022-08-19T00:38:31;5.9;;;5.4;;
50651;SDS011;61429;52.086;5.240;2022-08-19T00:40:11;6.0;;;5.5;;
50651;SDS011;61429;52.086;5.240;2022-08-19T00:41:49;6.1;;;5.6;;
50651;SDS011;61429;52.086;5.240;2022-08-19T00:45:05;6.3;;;5.8;;
50651;SDS011;61429;52.086;5.240;2022-08-19T00:46:48;6.3;;;5.7;;
50651;SDS011;61429;52.086;5.240;2022-08-19T00:48:26;8.0;;;6.3;;
50651;SDS011;61429;52.086;5.240;2022-08-19T00:51:41;7.3;;;6.6;;
50651;SDS011;61429;52.086;5.240;2022-08-19T00:53:23;7.1;;;6.5;;
50651;SDS011;61429;52.086;5.240;2022-08-19T00:55:04;6.9;;;6.3;;
50651;SDS011;61429;52.086;5.240;2022-08-19T00:56:44;7.6;;;6.9;;
50651;SDS011;61429;52.086;5.240;2022-08-19T01:00:06;7.4;;;6.8;;
50651;SDS011;61429;52.086;5.240;2022-08-19T01:01:45;8.6;;;7.1;;
50651;SDS011;61429;52.086;5.240;2022-08-19T01:03:23;7.3;;;6.8;;
50651;SDS011;61429;52.086;5.240;2022-08-19T01:05:00;7.1;;;6.5;;
50651;SDS011;61429;52.086;5.240;2022-08-19T01:08:18;7.9;;;7.3;;
50651;SDS011;61429;52.086;5.240;2022-08-19T01:09:55;7.7;;;7.0;;
50651;SDS011;61429;52.086;5.240;2022-08-19T01:11:33;8.31;;;7.7;;
50651;SDS011;61429;52.086;5.240;2022-08-19T01:13:19;8.1;;;7.4;;
50651;SDS011;61429;52.086;5.240;2022-08-19T01:16:35;6.6;;;6.1;;
50651;SDS011;61429;52.086;5.240;2022-08-19T01:18:15;6.0;;;5.5;;
50651;SDS011;61429;52.086;5.240;2022-08-19T01:19:53;5.6;;;5.11;;
50651;SDS011;61429;52.086;5.240;2022-08-19T01:23:20;5.8;;;5.3;;
50651;SDS011;61429;52.086;5.240;2022-08-19T01:24:56;6.2;;;5.6;;
50651;SDS011;61429;52.086;5.240;2022-08-19T01:26:37;5.3;;;4.91;;
50651;SDS011;61429;52.086;5.240;2022-08-19T01:28:16;6.2;;;5.6;;
50651;SDS011;61429;52.086;5.240;2022-08-19T01:29:56;6.3;;;5.8;;
50651;SDS011;61429;52.086;5.240;2022-08-19T01:33:07;6.0;;;5.4;;
50651;SDS011;61429;52.086;5.240;2022-08-19T01:34:46;6.2;;;5.6;;
50651;SDS011;61429;52.086;5.240;2022-08-19T01:36:24;6.1;;;5.6;;
50651;SDS011;61429;52.086;5.240;2022-08-19T01:39:46;5.7;;;5.3;;
50651;SDS011;61429;52.086;5.240;2022-08-19T01:41:23;5.7;;;5.2;;
50651;SDS011;61429;52.086;5.240;2022-08-19T01:43:00;5.5;;;5.11;;
50651;SDS011;61429;52.086;5.240;2022-08-19T01:44:38;5.9;;;5.4;;
50651;SDS011;61429;52.086;5.240;2022-08-19T01:47:51;5.9;;;5.4;;
50651;SDS011;61429;52.086;5.240;2022-08-19T01:49:28;6.1;;;5.6;;
50651;SDS011;61429;52.086;5.240;2022-08-19T01:51:06;6.7;;;6.1;;
50651;SDS011;61429;52.086;5.240;2022-08-19T01:54:23;6.2;;;5.7;;
50651;SDS011;61429;52.086;5.240;2022-08-19T01:56:00;7.0;;;6.4;;
50651;SDS011;61429;52.086;5.240;2022-08-19T01:57:39;6.8;;;6.2;;
50651;SDS011;61429;52.086;5.240;2022-08-19T01:59:20;7.4;;;6.8;;
50651;SDS011;61429;52.086;5.240;2022-08-19T02:02:36;7.0;;;6.4;;
50651;SDS011;61429;52.086;5.240;2022-08-19T02:04:12;7.7;;;7.1;;
50651;SDS011;61429;52.086;5.240;2022-08-19T02:05:54;8.0;;;7.4;;
50651;SDS011;61429;52.086;5.240;2022-08-19T02:09:08;7.0;;;6.4;;
50651;SDS011;61429;52.086;5.240;2022-08-19T02:10:46;6.4;;;5.9;;
50651;SDS011;61429;52.086;5.240;2022-08-19T02:12:22;6.9;;;6.3;;
50651;SDS011;61429;52.086;5.240;2022-08-19T02:13:59;7.7;;;7.0;;
50651;SDS011;61429;52.086;5.240;2022-08-19T02:17:13;9.4;;;8.6;;
50651;SDS011;61429;52.086;5.240;2022-08-19T02:18:50;10.6;;;9.6;;
50651;SDS011;61429;52.086;5.240;2022-08-19T02:20:26;10.6;;;9.71;;
50651;SDS011;61429;52.086;5.240;2022-08-19T02:23:40;10.6;;;9.81;;
50651;SDS011;61429;52.086;5.240;2022-08-19T02:25:16;10.5;;;9.6;;
50651;SDS011;61429;52.086;5.240;2022-08-19T02:26:52;11.5;;;10.4;;
50651;SDS011;61429;52.086;5.240;2022-08-19T02:28:29;11.3;;;10.3;;
50651;SDS011;61429;52.086;5.240;2022-08-19T02:31:47;10.21;;;9.31;;
50651;SDS011;61429;52.086;5.240;2022-08-19T02:33:23;10.9;;;9.9;;
50651;SDS011;61429;52.086;5.240;2022-08-19T02:35:00;11.0;;;10.1;;
50651;SDS011;61429;52.086;5.240;2022-08-19T02:38:29;11.6;;;10.7;;
50651;SDS011;61429;52.086;5.240;2022-08-19T02:40:06;11.6;;;10.6;;
50651;SDS011;61429;52.086;5.240;2022-08-19T02:41:44;11.9;;;10.9;;
50651;SDS011;61429;52.086;5.240;2022-08-19T02:43:20;12.7;;;11.6;;
50651;SDS011;61429;52.086;5.240;2022-08-19T02:46:34;11.8;;;10.8;;
50651;SDS011;61429;52.086;5.240;2022-08-19T02:48:11;13.8;;;12.5;;
50651;SDS011;61429;52.086;5.240;2022-08-19T02:49:49;13.3;;;12.2;;
50651;SDS011;61429;52.086;5.240;2022-08-19T02:53:08;13.2;;;12.0;;
50651;SDS011;61429;52.086;5.240;2022-08-19T02:54:45;12.9;;;11.7;;
50651;SDS011;61429;52.086;5.240;2022-08-19T02:56:22;12.9;;;11.8;;
50651;SDS011;61429;52.086;5.240;2022-08-19T02:57:59;13.0;;;11.8;;
50651;SDS011;61429;52.086;5.240;2022-08-19T03:01:19;9.9;;;9.1;;
50651;SDS011;61429;52.086;5.240;2022-08-19T03:02:57;10.8;;;9.81;;
50651;SDS011;61429;52.086;5.240;2022-08-19T03:04:33;8.71;;;8.0;;
50651;SDS011;61429;52.086;5.240;2022-08-19T03:06:10;8.4;;;7.7;;
50651;SDS011;61429;52.086;5.240;2022-08-19T03:09:27;10.5;;;9.5;;
50651;SDS011;61429;52.086;5.240;2022-08-19T03:11:03;10.7;;;9.81;;
50651;SDS011;61429;52.086;5.240;2022-08-19T03:12:40;10.3;;;9.4;;
50651;SDS011;61429;52.086;5.240;2022-08-19T03:15:54;10.1;;;9.1;;
50651;SDS011;61429;52.086;5.240;2022-08-19T03:19:06;10.6;;;9.71;;
50651;SDS011;61429;52.086;5.240;2022-08-19T03:22:21;11.6;;;10.4;;
50651;SDS011;61429;52.086;5.240;2022-08-19T03:23:59;11.0;;;10.1;;
50651;SDS011;61429;52.086;5.240;2022-08-19T03:25:47;10.6;;;9.71;;
50651;SDS011;61429;52.086;5.240;2022-08-19T03:27:24;11.4;;;10.3;;
50651;SDS011;61429;52.086;5.240;2022-08-19T03:30:41;11.1;;;10.1;;
50651;SDS011;61429;52.086;5.240;2022-08-19T03:32:19;11.4;;;10.4;;
50651;SDS011;61429;52.086;5.240;2022-08-19T03:33:55;11.6;;;10.4;;
50651;SDS011;61429;52.086;5.240;2022-08-19T03:35:31;11.4;;;10.3;;
50651;SDS011;61429;52.086;5.240;2022-08-19T03:38:49;11.1;;;10.0;;
50651;SDS011;61429;52.086;5.240;2022-08-19T03:40:30;9.1;;;8.4;;
50651;SDS011;61429;52.086;5.240;2022-08-19T03:42:07;10.21;;;9.31;;
50651;SDS011;61429;52.086;5.240;2022-08-19T03:45:23;9.71;;;8.81;;
50651;SDS011;61429;52.086;5.240;2022-08-19T03:47:00;9.5;;;8.81;;
50651;SDS011;61429;52.086;5.240;2022-08-19T03:48:37;10.3;;;9.4;;
50651;SDS011;61429;52.086;5.240;2022-08-19T03:50:14;11.1;;;10.1;;
50651;SDS011;61429;52.086;5.240;2022-08-19T03:53:31;12.4;;;11.3;;
50651;SDS011;61429;52.086;5.240;2022-08-19T03:55:08;10.9;;;10.0;;
50651;SDS011;61429;52.086;5.240;2022-08-19T03:56:46;11.3;;;10.3;;
50651;SDS011;61429;52.086;5.240;2022-08-19T04:00:05;10.7;;;9.71;;
50651;SDS011;61429;52.086;5.240;2022-08-19T04:01:42;10.9;;;9.9;;
50651;SDS011;61429;52.086;5.240;2022-08-19T04:03:19;10.5;;;9.6;;
50651;SDS011;61429;52.086;5.240;2022-08-19T04:04:55;11.3;;;10.21;;
50651;SDS011;61429;52.086;5.240;2022-08-19T04:08:11;11.3;;;10.21;;
50651;SDS011;61429;52.086;5.240;2022-08-19T04:09:47;11.6;;;10.5;;
50651;SDS011;61429;52.086;5.240;2022-08-19T04:11:24;11.3;;;10.3;;
50651;SDS011;61429;52.086;5.240;2022-08-19T04:14:41;10.0;;;8.71;;
50651;SDS011;61429;52.086;5.240;2022-08-19T04:16:17;10.0;;;9.1;;
50651;SDS011;61429;52.086;5.240;2022-08-19T04:17:56;9.6;;;8.71;;
50651;SDS011;61429;52.086;5.240;2022-08-19T04:19:33;12.0;;;10.9;;
50651;SDS011;61429;52.086;5.240;2022-08-19T04:22:52;12.0;;;10.6;;
50651;SDS011;61429;52.086;5.240;2022-08-19T04:24:29;11.8;;;10.7;;
50651;SDS011;61429;52.086;5.240;2022-08-19T04:26:06;12.2;;;10.9;;
50651;SDS011;61429;52.086;5.240;2022-08-19T04:29:25;14.0;;;12.6;;
50651;SDS011;61429;52.086;5.240;2022-08-19T04:31:01;13.1;;;11.8;;
50651;SDS011;61429;52.086;5.240;2022-08-19T04:32:39;10.9;;;9.9;;
50651;SDS011;61429;52.086;5.240;2022-08-19T04:34:17;12.1;;;10.9;;
50651;SDS011;61429;52.086;5.240;2022-08-19T04:37:34;13.1;;;11.7;;
50651;SDS011;61429;52.086;5.240;2022-08-19T04:39:11;11.6;;;10.6;;
50651;SDS011;61429;52.086;5.240;2022-08-19T04:43:48;13.8;;;12.5;;
50651;SDS011;61429;52.086;5.240;2022-08-19T04:47:00;12.4;;;11.2;;
50651;SDS011;61429;52.086;5.240;2022-08-19T04:50:15;14.4;;;13.0;;
50651;SDS011;61429;52.086;5.240;2022-08-19T04:51:54;14.7;;;13.3;;
50651;SDS011;61429;52.086;5.240;2022-08-19T04:53:31;15.5;;;13.8;;
50651;SDS011;61429;52.086;5.240;2022-08-19T04:55:10;16.3;;;14.7;;
50651;SDS011;61429;52.086;5.240;2022-08-19T04:58:27;19.2;;;17.3;;
50651;SDS011;61429;52.086;5.240;2022-08-19T05:00:04;19.8;;;17.8;;
50651;SDS011;61429;52.086;5.240;2022-08-19T05:01:42;18.7;;;16.8;;
50651;SDS011;61429;52.086;5.240;2022-08-19T05:03:19;21.8;;;19.61;;
50651;SDS011;61429;52.086;5.240;2022-08-19T05:06:35;22.0;;;19.61;;
50651;SDS011;61429;52.086;5.240;2022-08-19T05:08:13;20.9;;;18.7;;
50651;SDS011;61429;52.086;5.240;2022-08-19T05:09:50;22.8;;;20.41;;
50651;SDS011;61429;52.086;5.240;2022-08-19T05:13:10;22.5;;;20.3;;
50651;SDS011;61429;52.086;5.240;2022-08-19T05:14:47;23.2;;;20.9;;
50651;SDS011;61429;52.086;5.240;2022-08-19T05:16:26;23.6;;;21.1;;
50651;SDS011;61429;52.086;5.240;2022-08-19T05:24:29;19.11;;;17.2;;
50651;SDS011;61429;52.086;5.240;2022-08-19T05:27:42;22.7;;;20.41;;
50651;SDS011;61429;52.086;5.240;2022-08-19T05:29:19;26.9;;;23.1;;
50651;SDS011;61429;52.086;5.240;2022-08-19T05:30:57;24.9;;;22.2;;
50651;SDS011;61429;52.086;5.240;2022-08-19T05:34:11;25.8;;;23.1;;
50651;SDS011;61429;52.086;5.240;2022-08-19T05:35:49;23.6;;;21.1;;
50651;SDS011;61429;52.086;5.240;2022-08-19T05:37:27;25.2;;;22.7;;
50651;SDS011;61429;52.086;5.240;2022-08-19T05:39:03;25.9;;;23.1;;
50651;SDS011;61429;52.086;5.240;2022-08-19T05:43:57;27.2;;;24.2;;
50651;SDS011;61429;52.086;5.240;2022-08-19T05:45:37;27.0;;;23.9;;
50651;SDS011;61429;52.086;5.240;2022-08-19T05:47:15;25.6;;;22.9;;
50651;SDS011;61429;52.086;5.240;2022-08-19T05:50:30;27.3;;;24.5;;
50651;SDS011;61429;52.086;5.240;2022-08-19T05:52:07;29.4;;;26.2;;
50651;SDS011;61429;52.086;5.240;2022-08-19T05:53:47;28.2;;;25.1;;
50651;SDS011;61429;52.086;5.240;2022-08-19T05:57:00;28.1;;;25.2;;
50651;SDS011;61429;52.086;5.240;2022-08-19T05:58:37;28.1;;;25.1;;
50651;SDS011;61429;52.086;5.240;2022-08-19T06:00:15;30.2;;;26.9;;
50651;SDS011;61429;52.086;5.240;2022-08-19T06:01:54;34.31;;;28.0;;
50651;SDS011;61429;52.086;5.240;2022-08-19T06:05:10;30.1;;;26.8;;
50651;SDS011;61429;52.086;5.240;2022-08-19T06:06:46;31.0;;;27.7;;
50651;SDS011;61429;52.086;5.240;2022-08-19T06:08:24;31.2;;;27.9;;
50651;SDS011;61429;52.086;5.240;2022-08-19T06:11:41;31.2;;;27.8;;
50651;SDS011;61429;52.086;5.240;2022-08-19T06:13:20;34.6;;;29.1;;
50651;SDS011;61429;52.086;5.240;2022-08-19T06:14:58;32.1;;;28.4;;
50651;SDS011;61429;52.086;5.240;2022-08-19T06:16:36;34.0;;;29.1;;
50651;SDS011;61429;52.086;5.240;2022-08-19T06:19:51;34.0;;;29.1;;
50651;SDS011;61429;52.086;5.240;2022-08-19T06:21:29;34.1;;;30.4;;
50651;SDS011;61429;52.086;5.240;2022-08-19T06:23:06;34.4;;;29.9;;
50651;SDS011;61429;52.086;5.240;2022-08-19T06:26:20;35.21;;;29.0;;
50651;SDS011;61429;52.086;5.240;2022-08-19T06:27:57;34.0;;;29.9;;
50651;SDS011;61429;52.086;5.240;2022-08-19T06:29:34;37.21;;;31.1;;
50651;SDS011;61429;52.086;5.240;2022-08-19T06:31:14;35.71;;;30.4;;
50651;SDS011;61429;52.086;5.240;2022-08-19T06:34:30;43.5;;;33.1;;
50651;SDS011;61429;52.086;5.240;2022-08-19T06:36:15;44.1;;;33.9;;
50651;SDS011;61429;52.086;5.240;2022-08-19T06:37:53;46.7;;;34.9;;
50651;SDS011;61429;52.086;5.240;2022-08-19T06:41:14;46.0;;;35.21;;
50651;SDS011;61429;52.086;5.240;2022-08-19T06:42:50;50.4;;;36.71;;
50651;SDS011;61429;52.086;5.240;2022-08-19T06:44:27;52.6;;;40.21;;
50651;SDS011;61429;52.086;5.240;2022-08-19T06:46:11;51.7;;;39.9;;
50651;SDS011;61429;52.086;5.240;2022-08-19T06:49:30;50.7;;;39.71;;
50651;SDS011;61429;52.086;5.240;2022-08-19T06:51:08;53.8;;;41.1;;
50651;SDS011;61429;52.086;5.240;2022-08-19T06:52:44;51.8;;;40.21;;
50651;SDS011;61429;52.086;5.240;2022-08-19T06:54:20;52.4;;;40.0;;
50651;SDS011;61429;52.086;5.240;2022-08-19T06:57:36;51.0;;;39.9;;
50651;SDS011;61429;52.086;5.240;2022-08-19T06:59:14;49.2;;;39.6;;
50651;SDS011;61429;52.086;5.240;2022-08-19T07:01:01;46.4;;;37.21;;
50651;SDS011;61429;52.086;5.240;2022-08-19T07:02:39;50.4;;;38.21;;
50651;SDS011;61429;52.086;5.240;2022-08-19T07:05:56;50.4;;;38.21;;
50651;SDS011;61429;52.086;5.240;2022-08-19T07:07:34;51.7;;;39.31;;
50651;SDS011;61429;52.086;5.240;2022-08-19T07:09:12;50.5;;;39.4;;
50651;SDS011;61429;52.086;5.240;2022-08-19T07:12:29;50.4;;;39.1;;
50651;SDS011;61429;52.086;5.240;2022-08-19T07:14:08;50.1;;;39.21;;
50651;SDS011;61429;52.086;5.240;2022-08-19T07:15:46;48.6;;;38.0;;
50651;SDS011;61429;52.086;5.240;2022-08-19T07:17:22;48.6;;;39.31;;
50651;SDS011;61429;52.086;5.240;2022-08-19T07:20:37;44.9;;;37.6;;
50651;SDS011;61429;52.086;5.240;2022-08-19T07:22:14;44.4;;;37.9;;
50651;SDS011;61429;52.086;5.240;2022-08-19T07:23:51;50.4;;;39.9;;
50651;SDS011;61429;52.086;5.240;2022-08-19T07:27:05;51.5;;;39.5;;
50651;SDS011;61429;52.086;5.240;2022-08-19T07:28:43;45.3;;;37.6;;
50651;SDS011;61429;52.086;5.240;2022-08-19T07:30:23;47.0;;;38.0;;
50651;SDS011;61429;52.086;5.240;2022-08-19T07:31:59;42.9;;;34.21;;
50651;SDS011;61429;52.086;5.240;2022-08-19T07:35:14;42.2;;;35.21;;
50651;SDS011;61429;52.086;5.240;2022-08-19T07:36:51;41.6;;;34.31;;
50651;SDS011;61429;52.086;5.240;2022-08-19T07:38:28;43.5;;;34.9;;
50651;SDS011;61429;52.086;5.240;2022-08-19T07:41:43;44.4;;;33.8;;
50651;SDS011;61429;52.086;5.240;2022-08-19T07:43:25;41.2;;;34.0;;
50651;SDS011;61429;52.086;5.240;2022-08-19T07:45:04;42.3;;;34.81;;
50651;SDS011;61429;52.086;5.240;2022-08-19T07:46:45;41.0;;;33.9;;
50651;SDS011;61429;52.086;5.240;2022-08-19T07:50:07;39.6;;;33.71;;
50651;SDS011;61429;52.086;5.240;2022-08-19T07:51:47;37.9;;;32.3;;
50651;SDS011;61429;52.086;5.240;2022-08-19T07:53:25;37.21;;;32.5;;
50651;SDS011;61429;52.086;5.240;2022-08-19T07:55:04;39.5;;;32.0;;
50651;SDS011;61429;52.086;5.240;2022-08-19T07:58:19;36.4;;;31.0;;
50651;SDS011;61429;52.086;5.240;2022-08-19T07:59:58;37.1;;;30.1;;
50651;SDS011;61429;52.086;5.240;2022-08-19T08:01:35;34.0;;;29.8;;
50651;SDS011;61429;52.086;5.240;2022-08-19T08:03:13;31.5;;;27.2;;
50651;SDS011;61429;52.086;5.240;2022-08-19T08:09:30;29.8;;;26.4;;
50651;SDS011;61429;52.086;5.240;2022-08-19T08:11:09;30.5;;;25.4;;
50651;SDS011;61429;52.086;5.240;2022-08-19T08:12:45;28.9;;;25.7;;
50651;SDS011;61429;52.086;5.240;2022-08-19T08:14:23;32.3;;;25.5;;
50651;SDS011;61429;52.086;5.240;2022-08-19T08:16:03;30.5;;;25.4;;
50651;SDS011;61429;52.086;5.240;2022-08-19T08:19:18;31.5;;;25.9;;
50651;SDS011;61429;52.086;5.240;2022-08-19T08:20:57;32.9;;;26.6;;
50651;SDS011;61429;52.086;5.240;2022-08-19T08:23:38;31.6;;;26.2;;
50651;SDS011;61429;52.086;5.240;2022-08-19T08:25:14;31.3;;;26.5;;
50651;SDS011;61429;52.086;5.240;2022-08-19T08:26:56;31.8;;;26.4;;
50651;SDS011;61429;52.086;5.240;2022-08-19T08:28:35;28.5;;;25.3;;
50651;SDS011;61429;52.086;5.240;2022-08-19T08:31:53;30.2;;;26.9;;
50651;SDS011;61429;52.086;5.240;2022-08-19T08:33:30;29.9;;;26.6;;
50651;SDS011;61429;52.086;5.240;2022-08-19T08:35:07;30.5;;;27.3;;
50651;SDS011;61429;52.086;5.240;2022-08-19T08:36:48;34.0;;;26.9;;
50651;SDS011;61429;52.086;5.240;2022-08-19T08:40:02;31.6;;;27.9;;
50651;SDS011;61429;52.086;5.240;2022-08-19T08:41:44;33.8;;;28.2;;
50651;SDS011;61429;52.086;5.240;2022-08-19T08:43:33;32.5;;;28.9;;
50651;SDS011;61429;52.086;5.240;2022-08-19T08:45:15;34.71;;;29.7;;
50651;SDS011;61429;52.086;5.240;2022-08-19T08:48:37;34.6;;;30.3;;
50651;SDS011;61429;52.086;5.240;2022-08-19T08:50:21;33.9;;;30.3;;
50651;SDS011;61429;52.086;5.240;2022-08-19T08:52:05;33.6;;;30.0;;
50651;SDS011;61429;52.086;5.240;2022-08-19T08:53:48;31.6;;;28.3;;
50651;SDS011;61429;52.086;5.240;2022-08-19T08:57:07;31.7;;;28.0;;
50651;SDS011;61429;52.086;5.240;2022-08-19T08:58:57;31.5;;;28.1;;
50651;SDS011;61429;52.086;5.240;2022-08-19T09:00:39;32.5;;;26.8;;
50651;SDS011;61429;52.086;5.240;2022-08-19T09:02:20;30.1;;;26.3;;
50651;SDS011;61429;52.086;5.240;2022-08-19T09:03:56;27.1;;;24.4;;
50651;SDS011;61429;52.086;5.240;2022-08-19T09:07:30;27.1;;;24.4;;
50651;SDS011;61429;52.086;5.240;2022-08-19T09:09:32;28.4;;;23.9;;
50651;SDS011;61429;52.086;5.240;2022-08-19T09:11:15;25.1;;;22.4;;
50651;SDS011;61429;52.086;5.240;2022-08-19T09:13:08;22.9;;;20.5;;
50651;SDS011;61429;52.086;5.240;2022-08-19T09:15:02;22.5;;;19.91;;
50651;SDS011;61429;52.086;5.240;2022-08-19T09:16:41;24.0;;;20.8;;
50651;SDS011;61429;52.086;5.240;2022-08-19T09:19:56;23.7;;;20.7;;
50651;SDS011;61429;52.086;5.240;2022-08-19T09:21:35;22.3;;;20.0;;
50651;SDS011;61429;52.086;5.240;2022-08-19T09:23:11;22.8;;;20.5;;
50651;SDS011;61429;52.086;5.240;2022-08-19T09:24:48;22.8;;;20.5;;
50651;SDS011;61429;52.086;5.240;2022-08-19T09:28:03;24.2;;;21.6;;
50651;SDS011;61429;52.086;5.240;2022-08-19T09:29:39;22.3;;;19.91;;
50651;SDS011;61429;52.086;5.240;2022-08-19T09:31:16;25.5;;;21.4;;
50651;SDS011;61429;52.086;5.240;2022-08-19T09:34:37;21.9;;;19.61;;
50651;SDS011;61429;52.086;5.240;2022-08-19T09:36:14;23.3;;;20.8;;
50651;SDS011;61429;52.086;5.240;2022-08-19T09:37:54;27.6;;;24.8;;
50651;SDS011;61429;52.086;5.240;2022-08-19T09:39:31;26.2;;;23.4;;
50651;SDS011;61429;52.086;5.240;2022-08-19T09:42:48;26.4;;;23.7;;
50651;SDS011;61429;52.086;5.240;2022-08-19T09:44:24;26.0;;;23.3;;
50651;SDS011;61429;52.086;5.240;2022-08-19T09:46:00;26.2;;;23.6;;
50651;SDS011;61429;52.086;5.240;2022-08-19T09:49:14;26.2;;;23.5;;
50651;SDS011;61429;52.086;5.240;2022-08-19T09:50:52;25.4;;;22.7;;
50651;SDS011;61429;52.086;5.240;2022-08-19T09:52:28;25.0;;;22.4;;
50651;SDS011;61429;52.086;5.240;2022-08-19T09:54:04;24.9;;;22.3;;
50651;SDS011;61429;52.086;5.240;2022-08-19T09:57:18;25.0;;;21.8;;
50651;SDS011;61429;52.086;5.240;2022-08-19T09:58:54;23.9;;;21.6;;
50651;SDS011;61429;52.086;5.240;2022-08-19T10:00:31;25.9;;;23.3;;
50651;SDS011;61429;52.086;5.240;2022-08-19T10:03:46;27.1;;;24.2;;
50651;SDS011;61429;52.086;5.240;2022-08-19T10:05:56;28.1;;;25.1;;
50651;SDS011;61429;52.086;5.240;2022-08-19T10:07:35;31.8;;;28.6;;
50651;SDS011;61429;52.086;5.240;2022-08-19T10:09:12;29.5;;;26.6;;
50651;SDS011;61429;52.086;5.240;2022-08-19T10:10:50;29.0;;;25.9;;
50651;SDS011;61429;52.086;5.240;2022-08-19T10:14:05;29.5;;;26.6;;
50651;SDS011;61429;52.086;5.240;2022-08-19T10:15:43;30.8;;;27.5;;
50651;SDS011;61429;52.086;5.240;2022-08-19T10:17:20;31.8;;;28.4;;
50651;SDS011;61429;52.086;5.240;2022-08-19T10:20:35;30.2;;;27.0;;
50651;SDS011;61429;52.086;5.240;2022-08-19T10:22:14;28.0;;;25.4;;
50651;SDS011;61429;52.086;5.240;2022-08-19T10:23:52;30.6;;;27.4;;
50651;SDS011;61429;52.086;5.240;2022-08-19T10:25:31;30.9;;;27.9;;
50651;SDS011;61429;52.086;5.240;2022-08-19T10:28:46;30.5;;;27.3;;
50651;SDS011;61429;52.086;5.240;2022-08-19T10:30:23;30.8;;;27.8;;
50651;SDS011;61429;52.086;5.240;2022-08-19T10:32:00;32.1;;;28.9;;
50651;SDS011;61429;52.086;5.240;2022-08-19T10:35:15;31.5;;;28.5;;
50651;SDS011;61429;52.086;5.240;2022-08-19T10:36:52;33.1;;;29.8;;
50651;SDS011;61429;52.086;5.240;2022-08-19T10:38:28;34.1;;;30.6;;
50651;SDS011;61429;52.086;5.240;2022-08-19T10:40:07;31.5;;;28.4;;
50651;SDS011;61429;52.086;5.240;2022-08-19T10:43:20;32.21;;;27.7;;
50651;SDS011;61429;52.086;5.240;2022-08-19T10:44:57;29.6;;;26.6;;
50651;SDS011;61429;52.086;5.240;2022-08-19T10:46:36;30.7;;;27.5;;
50651;SDS011;61429;52.086;5.240;2022-08-19T10:52:46;34.31;;;30.6;;
50651;SDS011;61429;52.086;5.240;2022-08-19T10:58:26;34.81;;;31.1;;
50651;SDS011;61429;52.086;5.240;2022-08-19T11:00:03;33.5;;;30.0;;
50651;SDS011;61429;52.086;5.240;2022-08-19T11:01:40;32.4;;;29.2;;
50651;SDS011;61429;52.086;5.240;2022-08-19T11:03:19;33.5;;;30.0;;
50651;SDS011;61429;52.086;5.240;2022-08-19T11:06:32;32.0;;;28.5;;
50651;SDS011;61429;52.086;5.240;2022-08-19T11:08:11;31.5;;;27.7;;
50651;SDS011;61429;52.086;5.240;2022-08-19T11:09:47;33.0;;;29.5;;
50651;SDS011;61429;52.086;5.240;2022-08-19T11:13:00;33.1;;;29.1;;
50651;SDS011;61429;52.086;5.240;2022-08-19T11:14:36;33.1;;;29.1;;
50651;SDS011;61429;52.086;5.240;2022-08-19T11:16:14;30.9;;;27.6;;
50651;SDS011;61429;52.086;5.240;2022-08-19T11:17:54;33.9;;;28.9;;
50651;SDS011;61429;52.086;5.240;2022-08-19T11:21:10;29.1;;;26.1;;
50651;SDS011;61429;52.086;5.240;2022-08-19T11:22:50;30.3;;;27.2;;
50651;SDS011;61429;52.086;5.240;2022-08-19T11:24:27;28.2;;;25.4;;
50651;SDS011;61429;52.086;5.240;2022-08-19T11:27:42;30.1;;;26.9;;
50651;SDS011;61429;52.086;5.240;2022-08-19T11:29:19;27.3;;;24.6;;
50651;SDS011;61429;52.086;5.240;2022-08-19T11:30:58;29.7;;;26.7;;
50651;SDS011;61429;52.086;5.240;2022-08-19T11:32:36;31.6;;;28.5;;
50651;SDS011;61429;52.086;5.240;2022-08-19T11:35:56;31.0;;;27.9;;
50651;SDS011;61429;52.086;5.240;2022-08-19T11:37:37;29.1;;;26.1;;
50651;SDS011;61429;52.086;5.240;2022-08-19T11:39:14;29.5;;;26.4;;
50651;SDS011;61429;52.086;5.240;2022-08-19T11:40:55;29.8;;;26.9;;
50651;SDS011;61429;52.086;5.240;2022-08-19T11:44:40;30.6;;;27.5;;
50651;SDS011;61429;52.086;5.240;2022-08-19T11:46:17;30.6;;;27.5;;
50651;SDS011;61429;52.086;5.240;2022-08-19T11:47:53;29.6;;;26.8;;
50651;SDS011;61429;52.086;5.240;2022-08-19T11:49:31;27.2;;;24.5;;
50651;SDS011;61429;52.086;5.240;2022-08-19T11:52:52;28.8;;;25.9;;
50651;SDS011;61429;52.086;5.240;2022-08-19T11:54:30;26.7;;;23.9;;
50651;SDS011;61429;52.086;5.240;2022-08-19T11:56:08;27.9;;;25.1;;
50651;SDS011;61429;52.086;5.240;2022-08-19T11:57:46;27.4;;;24.6;;
50651;SDS011;61429;52.086;5.240;2022-08-19T12:00:58;30.0;;;27.0;;
50651;SDS011;61429;52.086;5.240;2022-08-19T12:02:35;30.5;;;27.5;;
50651;SDS011;61429;52.086;5.240;2022-08-19T12:04:12;29.7;;;26.9;;
50651;SDS011;61429;52.086;5.240;2022-08-19T12:07:25;29.0;;;26.2;;
50651;SDS011;61429;52.086;5.240;2022-08-19T12:09:03;30.3;;;27.3;;
50651;SDS011;61429;52.086;5.240;2022-08-19T12:10:43;29.6;;;26.6;;
50651;SDS011;61429;52.086;5.240;2022-08-19T12:12:19;30.8;;;27.8;;
50651;SDS011;61429;52.086;5.240;2022-08-19T12:15:34;30.1;;;26.9;;
50651;SDS011;61429;52.086;5.240;2022-08-19T12:17:11;30.5;;;27.5;;
50651;SDS011;61429;52.086;5.240;2022-08-19T12:18:50;37.5;;;32.1;;
50651;SDS011;61429;52.086;5.240;2022-08-19T12:22:05;31.6;;;28.6;;
50651;SDS011;61429;52.086;5.240;2022-08-19T12:23:41;29.6;;;26.7;;
50651;SDS011;61429;52.086;5.240;2022-08-19T12:25:19;23.9;;;21.7;;
50651;SDS011;61429;52.086;5.240;2022-08-19T12:26:57;23.4;;;21.1;;
50651;SDS011;61429;52.086;5.240;2022-08-19T12:30:10;27.0;;;24.5;;
50651;SDS011;61429;52.086;5.240;2022-08-19T12:31:49;24.2;;;21.8;;
50651;SDS011;61429;52.086;5.240;2022-08-19T12:33:27;23.6;;;21.2;;
50651;SDS011;61429;52.086;5.240;2022-08-19T12:36:42;22.2;;;20.11;;
50651;SDS011;61429;52.086;5.240;2022-08-19T12:38:18;20.9;;;18.8;;
50651;SDS011;61429;52.086;5.240;2022-08-19T12:39:56;23.1;;;20.9;;
50651;SDS011;61429;52.086;5.240;2022-08-19T12:41:33;23.6;;;21.5;;
50651;SDS011;61429;52.086;5.240;2022-08-19T12:44:45;20.41;;;18.3;;
50651;SDS011;61429;52.086;5.240;2022-08-19T12:46:21;18.3;;;16.61;;
50651;SDS011;61429;52.086;5.240;2022-08-19T12:47:57;14.7;;;13.4;;
50651;SDS011;61429;52.086;5.240;2022-08-19T12:51:15;14.1;;;12.7;;
50651;SDS011;61429;52.086;5.240;2022-08-19T12:52:53;12.1;;;11.0;;
50651;SDS011;61429;52.086;5.240;2022-08-19T12:54:30;12.0;;;10.8;;
50651;SDS011;61429;52.086;5.240;2022-08-19T12:56:08;11.4;;;10.21;;
50651;SDS011;61429;52.086;5.240;2022-08-19T12:59:25;10.8;;;9.81;;
50651;SDS011;61429;52.086;5.240;2022-08-19T13:01:06;9.31;;;8.4;;
50651;SDS011;61429;52.086;5.240;2022-08-19T13:02:45;9.1;;;8.2;;